sensor_id;sensor_type;location;lat;lon;timestamp;P1;durP1;ratioP1;P2;durP2;ratioP2
20857;SDS011;10589;53.636;10.012;2024-02-15T04:47:33;85.73;;;28.27;;
20857;SDS011;10589;53.636;10.012;2024-02-15T04:49:59;122.47;;;32.17;;
20857;SDS011;10589;53.636;10.012;2024-02-15T04:52:25;95.43;;;29.47;;
20857;SDS011;10589;53.636;10.012;2024-02-15T04:54:50;78.07;;;27.27;;
20857;SDS011;10589;53.636;10.012;2024-02-15T04:57:16;94.37;;;28.60;;
20857;SDS011;10589;53.636;10.012;2024-02-15T04:59:42;106.83;;;30.10;;
20857;SDS011;10589;53.636;10.012;2024-02-15T05:02:12;112.27;;;30.33;;
20857;SDS011;10589;53.636;10.012;2024-02-15T05:04:38;137.07;;;33.87;;
20857;SDS011;10589;53.636;10.012;2024-02-15T05:07:07;97.10;;;29.47;;
20857;SDS011;10589;53.636;10.012;2024-02-15T05:09:33;95.10;;;29.47;;
20857;SDS011;10589;53.636;10.012;2024-02-15T05:11:59;86.97;;;30.00;;
20857;SDS011;10589;53.636;10.012;2024-02-15T05:14:27;116.47;;;33.20;;
20857;SDS011;10589;53.636;10.012;2024-02-15T05:16:53;137.30;;;35.30;;
20857;SDS011;10589;53.636;10.012;2024-02-15T05:19:18;117.60;;;33.13;;
20857;SDS011;10589;53.636;10.012;2024-02-15T05:21:44;119.23;;;33.40;;
20857;SDS011;10589;53.636;10.012;2024-02-15T05:24:14;109.73;;;31.20;;
20857;SDS011;10589;53.636;10.012;2024-02-15T05:26:44;124.63;;;33.57;;
20857;SDS011;10589;53.636;10.012;2024-02-15T05:29:14;118.87;;;32.10;;
20857;SDS011;10589;53.636;10.012;2024-02-15T05:31:40;122.10;;;32.47;;
20857;SDS011;10589;53.636;10.012;2024-02-15T05:34:06;85.43;;;29.67;;
20857;SDS011;10589;53.636;10.012;2024-02-15T05:36:33;127.20;;;33.60;;
20857;SDS011;10589;53.636;10.012;2024-02-15T05:38:59;112.13;;;32.83;;
20857;SDS011;10589;53.636;10.012;2024-02-15T05:41:27;116.70;;;33.50;;
20857;SDS011;10589;53.636;10.012;2024-02-15T05:43:53;121.23;;;32.90;;
20857;SDS011;10589;53.636;10.012;2024-02-15T05:46:19;90.10;;;29.33;;
20857;SDS011;10589;53.636;10.012;2024-02-15T05:48:46;124.80;;;34.27;;
20857;SDS011;10589;53.636;10.012;2024-02-15T05:51:12;103.90;;;32.03;;
20857;SDS011;10589;53.636;10.012;2024-02-15T05:53:38;110.57;;;31.37;;
20857;SDS011;10589;53.636;10.012;2024-02-15T05:56:07;154.20;;;35.47;;
20857;SDS011;10589;53.636;10.012;2024-02-15T05:58:34;136.80;;;35.63;;
20857;SDS011;10589;53.636;10.012;2024-02-15T06:01:00;130.30;;;33.87;;
20857;SDS011;10589;53.636;10.012;2024-02-15T06:03:28;108.50;;;32.63;;
20857;SDS011;10589;53.636;10.012;2024-02-15T06:05:54;102.53;;;31.37;;
20857;SDS011;10589;53.636;10.012;2024-02-15T06:08:26;167.37;;;37.93;;
20857;SDS011;10589;53.636;10.012;2024-02-15T06:10:54;99.00;;;30.60;;
20857;SDS011;10589;53.636;10.012;2024-02-15T06:13:20;101.23;;;31.10;;
20857;SDS011;10589;53.636;10.012;2024-02-15T06:15:47;98.33;;;32.60;;
20857;SDS011;10589;53.636;10.012;2024-02-15T06:18:18;128.23;;;34.77;;
20857;SDS011;10589;53.636;10.012;2024-02-15T06:20:46;135.67;;;36.90;;
20857;SDS011;10589;53.636;10.012;2024-02-15T06:23:15;100.03;;;32.27;;
20857;SDS011;10589;53.636;10.012;2024-02-15T06:25:41;108.23;;;33.10;;
20857;SDS011;10589;53.636;10.012;2024-02-15T06:28:07;126.50;;;36.13;;
20857;SDS011;10589;53.636;10.012;2024-02-15T06:30:45;138.77;;;36.43;;
20857;SDS011;10589;53.636;10.012;2024-02-15T06:33:29;108.23;;;33.63;;
20857;SDS011;10589;53.636;10.012;2024-02-15T06:36:14;115.33;;;34.00;;
20857;SDS011;10589;53.636;10.012;2024-02-15T06:38:57;143.90;;;36.70;;
20857;SDS011;10589;53.636;10.012;2024-02-15T06:41:42;152.67;;;37.93;;
20857;SDS011;10589;53.636;10.012;2024-02-15T06:44:07;136.50;;;36.50;;
20857;SDS011;10589;53.636;10.012;2024-02-15T06:46:33;101.47;;;31.13;;
20857;SDS011;10589;53.636;10.012;2024-02-15T06:48:58;160.00;;;39.27;;
20857;SDS011;10589;53.636;10.012;2024-02-15T06:51:24;138.13;;;38.10;;
20857;SDS011;10589;53.636;10.012;2024-02-15T06:53:50;136.90;;;35.73;;
20857;SDS011;10589;53.636;10.012;2024-02-15T06:56:16;109.97;;;34.73;;
20857;SDS011;10589;53.636;10.012;2024-02-15T06:58:43;185.93;;;41.63;;
20857;SDS011;10589;53.636;10.012;2024-02-15T07:01:08;154.50;;;38.90;;
20857;SDS011;10589;53.636;10.012;2024-02-15T07:03:34;167.13;;;38.57;;
20857;SDS011;10589;53.636;10.012;2024-02-15T07:06:00;188.13;;;41.30;;
20857;SDS011;10589;53.636;10.012;2024-02-15T07:08:27;178.63;;;40.50;;
20857;SDS011;10589;53.636;10.012;2024-02-15T07:10:54;148.03;;;37.33;;
20857;SDS011;10589;53.636;10.012;2024-02-15T07:13:20;143.57;;;37.50;;
20857;SDS011;10589;53.636;10.012;2024-02-15T07:15:45;146.23;;;37.03;;
20857;SDS011;10589;53.636;10.012;2024-02-15T07:18:12;132.23;;;35.60;;
20857;SDS011;10589;53.636;10.012;2024-02-15T07:20:41;147.93;;;37.37;;
20857;SDS011;10589;53.636;10.012;2024-02-15T07:23:06;162.20;;;38.90;;
20857;SDS011;10589;53.636;10.012;2024-02-15T07:25:32;127.90;;;33.93;;
20857;SDS011;10589;53.636;10.012;2024-02-15T07:27:57;116.97;;;33.67;;
20857;SDS011;10589;53.636;10.012;2024-02-15T07:30:23;145.90;;;34.73;;
20857;SDS011;10589;53.636;10.012;2024-02-15T07:32:49;123.07;;;33.03;;
20857;SDS011;10589;53.636;10.012;2024-02-15T07:35:15;121.43;;;31.87;;
20857;SDS011;10589;53.636;10.012;2024-02-15T07:37:52;126.07;;;31.80;;
20857;SDS011;10589;53.636;10.012;2024-02-15T07:40:23;94.40;;;28.43;;
20857;SDS011;10589;53.636;10.012;2024-02-15T07:42:52;111.77;;;30.43;;
20857;SDS011;10589;53.636;10.012;2024-02-15T07:45:19;97.07;;;27.73;;
20857;SDS011;10589;53.636;10.012;2024-02-15T07:47:45;94.50;;;28.00;;
20857;SDS011;10589;53.636;10.012;2024-02-15T07:50:11;114.63;;;29.80;;
20857;SDS011;10589;53.636;10.012;2024-02-15T07:52:41;116.23;;;30.43;;
20857;SDS011;10589;53.636;10.012;2024-02-15T07:55:07;92.17;;;28.27;;
20857;SDS011;10589;53.636;10.012;2024-02-15T07:57:33;89.60;;;28.13;;
20857;SDS011;10589;53.636;10.012;2024-02-15T07:59:59;82.10;;;25.80;;
20857;SDS011;10589;53.636;10.012;2024-02-15T08:02:25;102.23;;;29.47;;
20857;SDS011;10589;53.636;10.012;2024-02-15T08:04:53;87.90;;;26.13;;
20857;SDS011;10589;53.636;10.012;2024-02-15T08:07:19;81.70;;;26.10;;
20857;SDS011;10589;53.636;10.012;2024-02-15T08:09:45;97.47;;;27.53;;
20857;SDS011;10589;53.636;10.012;2024-02-15T08:12:11;101.50;;;29.17;;
20857;SDS011;10589;53.636;10.012;2024-02-15T08:14:37;99.37;;;26.90;;
20857;SDS011;10589;53.636;10.012;2024-02-15T08:17:05;123.97;;;30.77;;
20857;SDS011;10589;53.636;10.012;2024-02-15T08:19:33;106.07;;;28.23;;
20857;SDS011;10589;53.636;10.012;2024-02-15T08:22:04;91.50;;;26.60;;
20857;SDS011;10589;53.636;10.012;2024-02-15T08:24:30;98.07;;;28.07;;
20857;SDS011;10589;53.636;10.012;2024-02-15T08:26:56;101.63;;;29.70;;
20857;SDS011;10589;53.636;10.012;2024-02-15T08:29:24;113.00;;;31.80;;
20857;SDS011;10589;53.636;10.012;2024-02-15T08:31:50;120.00;;;32.57;;
20857;SDS011;10589;53.636;10.012;2024-02-15T08:34:15;110.07;;;32.10;;
20857;SDS011;10589;53.636;10.012;2024-02-15T08:36:43;112.37;;;32.90;;
20857;SDS011;10589;53.636;10.012;2024-02-15T08:39:09;94.30;;;29.77;;
20857;SDS011;10589;53.636;10.012;2024-02-15T08:41:37;101.20;;;28.83;;
20857;SDS011;10589;53.636;10.012;2024-02-15T08:44:04;96.13;;;28.27;;
20857;SDS011;10589;53.636;10.012;2024-02-15T08:46:34;83.87;;;27.13;;
20857;SDS011;10589;53.636;10.012;2024-02-15T08:49:01;98.70;;;28.80;;
20857;SDS011;10589;53.636;10.012;2024-02-15T08:51:28;99.17;;;28.73;;
20857;SDS011;10589;53.636;10.012;2024-02-15T08:53:55;82.47;;;27.40;;
20857;SDS011;10589;53.636;10.012;2024-02-15T08:56:21;82.10;;;26.40;;
20857;SDS011;10589;53.636;10.012;2024-02-15T08:58:48;84.77;;;25.83;;
20857;SDS011;10589;53.636;10.012;2024-02-15T09:01:14;84.00;;;24.17;;
20857;SDS011;10589;53.636;10.012;2024-02-15T09:03:39;71.03;;;23.23;;
20857;SDS011;10589;53.636;10.012;2024-02-15T09:06:05;67.37;;;22.03;;
20857;SDS011;10589;53.636;10.012;2024-02-15T09:08:32;60.50;;;19.93;;
20857;SDS011;10589;53.636;10.012;2024-02-15T09:10:58;51.63;;;19.17;;
20857;SDS011;10589;53.636;10.012;2024-02-15T09:13:24;57.27;;;19.97;;
20857;SDS011;10589;53.636;10.012;2024-02-15T09:15:50;55.93;;;18.80;;
20857;SDS011;10589;53.636;10.012;2024-02-15T09:18:15;59.07;;;20.50;;
20857;SDS011;10589;53.636;10.012;2024-02-15T09:20:43;56.43;;;20.93;;
20857;SDS011;10589;53.636;10.012;2024-02-15T09:23:10;52.00;;;19.53;;
20857;SDS011;10589;53.636;10.012;2024-02-15T09:25:41;47.93;;;20.13;;
20857;SDS011;10589;53.636;10.012;2024-02-15T09:28:09;42.23;;;19.10;;
20857;SDS011;10589;53.636;10.012;2024-02-15T09:30:35;49.93;;;19.43;;
20857;SDS011;10589;53.636;10.012;2024-02-15T09:33:01;46.40;;;20.43;;
20857;SDS011;10589;53.636;10.012;2024-02-15T09:35:30;44.23;;;18.97;;
20857;SDS011;10589;53.636;10.012;2024-02-15T09:37:56;44.40;;;19.77;;
20857;SDS011;10589;53.636;10.012;2024-02-15T09:40:22;46.60;;;19.90;;
20857;SDS011;10589;53.636;10.012;2024-02-15T09:42:51;47.40;;;20.60;;
20857;SDS011;10589;53.636;10.012;2024-02-15T09:45:17;48.23;;;21.30;;
20857;SDS011;10589;53.636;10.012;2024-02-15T09:47:45;37.87;;;17.27;;
20857;SDS011;10589;53.636;10.012;2024-02-15T09:50:14;43.73;;;18.73;;
20857;SDS011;10589;53.636;10.012;2024-02-15T09:52:44;46.03;;;19.93;;
20857;SDS011;10589;53.636;10.012;2024-02-15T09:55:15;42.53;;;19.07;;
20857;SDS011;10589;53.636;10.012;2024-02-15T09:57:42;48.70;;;19.87;;
20857;SDS011;10589;53.636;10.012;2024-02-15T10:00:09;40.37;;;18.67;;
20857;SDS011;10589;53.636;10.012;2024-02-15T10:02:42;42.70;;;18.47;;
20857;SDS011;10589;53.636;10.012;2024-02-15T10:05:12;35.03;;;16.57;;
20857;SDS011;10589;53.636;10.012;2024-02-15T10:07:41;37.77;;;17.13;;
20857;SDS011;10589;53.636;10.012;2024-02-15T10:12:42;33.33;;;17.90;;
20857;SDS011;10589;53.636;10.012;2024-02-15T10:15:08;38.87;;;18.90;;
20857;SDS011;10589;53.636;10.012;2024-02-15T10:17:35;38.17;;;19.40;;
20857;SDS011;10589;53.636;10.012;2024-02-15T10:20:04;41.33;;;19.07;;
20857;SDS011;10589;53.636;10.012;2024-02-15T10:22:35;42.37;;;19.33;;
20857;SDS011;10589;53.636;10.012;2024-02-15T10:25:13;47.97;;;22.50;;
20857;SDS011;10589;53.636;10.012;2024-02-15T10:27:42;43.63;;;20.20;;
20857;SDS011;10589;53.636;10.012;2024-02-15T10:30:15;52.73;;;22.10;;
20857;SDS011;10589;53.636;10.012;2024-02-15T10:32:42;47.37;;;22.50;;
20857;SDS011;10589;53.636;10.012;2024-02-15T10:35:10;58.40;;;23.97;;
20857;SDS011;10589;53.636;10.012;2024-02-15T10:37:40;51.77;;;23.57;;
20857;SDS011;10589;53.636;10.012;2024-02-15T10:40:07;58.37;;;25.97;;
20857;SDS011;10589;53.636;10.012;2024-02-15T10:42:33;46.53;;;25.27;;
20857;SDS011;10589;53.636;10.012;2024-02-15T10:45:04;62.23;;;27.60;;
20857;SDS011;10589;53.636;10.012;2024-02-15T10:47:35;65.87;;;28.90;;
20857;SDS011;10589;53.636;10.012;2024-02-15T10:50:02;58.13;;;28.83;;
20857;SDS011;10589;53.636;10.012;2024-02-15T10:52:30;61.43;;;30.80;;
20857;SDS011;10589;53.636;10.012;2024-02-15T10:55:00;61.33;;;29.93;;
20857;SDS011;10589;53.636;10.012;2024-02-15T10:57:29;61.77;;;30.07;;
20857;SDS011;10589;53.636;10.012;2024-02-15T10:59:58;56.90;;;28.17;;
20857;SDS011;10589;53.636;10.012;2024-02-15T11:02:36;61.10;;;29.30;;
20857;SDS011;10589;53.636;10.012;2024-02-15T11:05:05;67.60;;;31.03;;
20857;SDS011;10589;53.636;10.012;2024-02-15T11:07:35;61.23;;;30.03;;
20857;SDS011;10589;53.636;10.012;2024-02-15T11:10:05;62.33;;;31.60;;
20857;SDS011;10589;53.636;10.012;2024-02-15T11:12:33;70.37;;;31.70;;
20857;SDS011;10589;53.636;10.012;2024-02-15T11:14:59;59.50;;;30.37;;
20857;SDS011;10589;53.636;10.012;2024-02-15T11:20:08;70.67;;;32.27;;
20857;SDS011;10589;53.636;10.012;2024-02-15T11:22:36;68.37;;;32.50;;
20857;SDS011;10589;53.636;10.012;2024-02-15T11:25:03;72.03;;;32.23;;
20857;SDS011;10589;53.636;10.012;2024-02-15T11:27:40;66.57;;;32.43;;
20857;SDS011;10589;53.636;10.012;2024-02-15T11:30:06;67.03;;;32.50;;
20857;SDS011;10589;53.636;10.012;2024-02-15T11:32:45;72.67;;;32.23;;
20857;SDS011;10589;53.636;10.012;2024-02-15T11:35:23;68.30;;;33.40;;
20857;SDS011;10589;53.636;10.012;2024-02-15T11:37:50;76.27;;;32.63;;
20857;SDS011;10589;53.636;10.012;2024-02-15T11:40:18;65.60;;;31.93;;
20857;SDS011;10589;53.636;10.012;2024-02-15T11:42:51;70.77;;;32.57;;
20857;SDS011;10589;53.636;10.012;2024-02-15T11:45:22;68.43;;;32.07;;
20857;SDS011;10589;53.636;10.012;2024-02-15T11:47:48;72.00;;;33.27;;
20857;SDS011;10589;53.636;10.012;2024-02-15T11:50:15;69.23;;;33.37;;
20857;SDS011;10589;53.636;10.012;2024-02-15T11:52:45;73.97;;;33.50;;
20857;SDS011;10589;53.636;10.012;2024-02-15T11:55:14;78.37;;;34.03;;
20857;SDS011;10589;53.636;10.012;2024-02-15T11:57:44;72.77;;;34.50;;
20857;SDS011;10589;53.636;10.012;2024-02-15T12:00:28;75.23;;;33.23;;
20857;SDS011;10589;53.636;10.012;2024-02-15T12:03:13;77.83;;;35.27;;
20857;SDS011;10589;53.636;10.012;2024-02-15T12:05:58;72.47;;;33.17;;
20857;SDS011;10589;53.636;10.012;2024-02-15T12:08:43;76.17;;;34.63;;
20857;SDS011;10589;53.636;10.012;2024-02-15T12:11:29;74.00;;;34.30;;
20857;SDS011;10589;53.636;10.012;2024-02-15T12:14:13;77.20;;;35.47;;
20857;SDS011;10589;53.636;10.012;2024-02-15T12:19:53;64.07;;;32.53;;
20857;SDS011;10589;53.636;10.012;2024-02-15T12:22:27;64.70;;;33.00;;
20857;SDS011;10589;53.636;10.012;2024-02-15T12:25:00;66.37;;;32.40;;
20857;SDS011;10589;53.636;10.012;2024-02-15T12:27:26;77.20;;;35.07;;
20857;SDS011;10589;53.636;10.012;2024-02-15T12:29:56;80.67;;;33.60;;
20857;SDS011;10589;53.636;10.012;2024-02-15T12:32:23;79.57;;;35.13;;
20857;SDS011;10589;53.636;10.012;2024-02-15T12:34:52;74.43;;;32.87;;
20857;SDS011;10589;53.636;10.012;2024-02-15T12:37:34;77.83;;;33.80;;
20857;SDS011;10589;53.636;10.012;2024-02-15T12:40:09;74.33;;;32.07;;
20857;SDS011;10589;53.636;10.012;2024-02-15T12:42:38;67.07;;;32.33;;
20857;SDS011;10589;53.636;10.012;2024-02-15T12:45:04;61.10;;;29.93;;
20857;SDS011;10589;53.636;10.012;2024-02-15T12:47:32;74.77;;;33.93;;
20857;SDS011;10589;53.636;10.012;2024-02-15T12:49:58;70.83;;;33.07;;
20857;SDS011;10589;53.636;10.012;2024-02-15T12:52:39;65.47;;;31.27;;
20857;SDS011;10589;53.636;10.012;2024-02-15T12:55:14;71.47;;;32.23;;
20857;SDS011;10589;53.636;10.012;2024-02-15T12:57:52;81.87;;;33.83;;
20857;SDS011;10589;53.636;10.012;2024-02-15T13:00:20;61.23;;;28.63;;
20857;SDS011;10589;53.636;10.012;2024-02-15T13:02:49;60.13;;;27.23;;
20857;SDS011;10589;53.636;10.012;2024-02-15T13:05:19;61.80;;;29.10;;
20857;SDS011;10589;53.636;10.012;2024-02-15T13:07:47;66.87;;;29.10;;
20857;SDS011;10589;53.636;10.012;2024-02-15T13:10:13;51.47;;;24.80;;
20857;SDS011;10589;53.636;10.012;2024-02-15T13:12:42;49.77;;;24.23;;
20857;SDS011;10589;53.636;10.012;2024-02-15T13:15:10;44.13;;;23.07;;
20857;SDS011;10589;53.636;10.012;2024-02-15T13:17:42;39.00;;;21.00;;
20857;SDS011;10589;53.636;10.012;2024-02-15T13:20:10;43.47;;;22.60;;
20857;SDS011;10589;53.636;10.012;2024-02-15T13:22:38;34.00;;;19.80;;
20857;SDS011;10589;53.636;10.012;2024-02-15T13:25:08;40.47;;;20.83;;
20857;SDS011;10589;53.636;10.012;2024-02-15T13:27:37;38.80;;;20.60;;
20857;SDS011;10589;53.636;10.012;2024-02-15T13:30:03;40.80;;;19.43;;
20857;SDS011;10589;53.636;10.012;2024-02-15T13:32:37;33.73;;;19.10;;
20857;SDS011;10589;53.636;10.012;2024-02-15T13:35:10;34.37;;;19.73;;
20857;SDS011;10589;53.636;10.012;2024-02-15T13:37:42;33.77;;;19.53;;
20857;SDS011;10589;53.636;10.012;2024-02-15T13:40:11;33.37;;;19.27;;
20857;SDS011;10589;53.636;10.012;2024-02-15T13:42:46;39.80;;;20.73;;
20857;SDS011;10589;53.636;10.012;2024-02-15T13:45:22;35.70;;;20.47;;
20857;SDS011;10589;53.636;10.012;2024-02-15T13:47:48;35.30;;;20.10;;
20857;SDS011;10589;53.636;10.012;2024-02-15T13:50:15;34.27;;;20.27;;
20857;SDS011;10589;53.636;10.012;2024-02-15T13:52:42;31.03;;;19.60;;
20857;SDS011;10589;53.636;10.012;2024-02-15T13:55:18;33.77;;;20.27;;
20857;SDS011;10589;53.636;10.012;2024-02-15T13:57:46;31.83;;;19.60;;
20857;SDS011;10589;53.636;10.012;2024-02-15T14:00:12;36.13;;;19.67;;
20857;SDS011;10589;53.636;10.012;2024-02-15T14:02:54;36.00;;;21.03;;
20857;SDS011;10589;53.636;10.012;2024-02-15T14:05:23;37.67;;;21.53;;
20857;SDS011;10589;53.636;10.012;2024-02-15T14:07:55;34.90;;;20.43;;
20857;SDS011;10589;53.636;10.012;2024-02-15T14:10:22;37.10;;;21.50;;
20857;SDS011;10589;53.636;10.012;2024-02-15T14:12:49;40.97;;;21.40;;
20857;SDS011;10589;53.636;10.012;2024-02-15T14:15:20;36.97;;;21.60;;
20857;SDS011;10589;53.636;10.012;2024-02-15T14:17:46;40.20;;;22.63;;
20857;SDS011;10589;53.636;10.012;2024-02-15T14:20:12;38.60;;;22.27;;
20857;SDS011;10589;53.636;10.012;2024-02-15T14:22:39;37.17;;;21.73;;
20857;SDS011;10589;53.636;10.012;2024-02-15T14:25:06;35.60;;;21.97;;
20857;SDS011;10589;53.636;10.012;2024-02-15T14:27:32;38.40;;;22.07;;
20857;SDS011;10589;53.636;10.012;2024-02-15T14:29:58;31.03;;;20.10;;
20857;SDS011;10589;53.636;10.012;2024-02-15T14:32:42;35.70;;;20.73;;
20857;SDS011;10589;53.636;10.012;2024-02-15T14:35:27;30.80;;;18.67;;
20857;SDS011;10589;53.636;10.012;2024-02-15T14:37:55;40.00;;;22.07;;
20857;SDS011;10589;53.636;10.012;2024-02-15T14:40:24;35.17;;;21.20;;
20857;SDS011;10589;53.636;10.012;2024-02-15T14:42:50;34.50;;;21.93;;
20857;SDS011;10589;53.636;10.012;2024-02-15T14:45:15;31.73;;;20.13;;
20857;SDS011;10589;53.636;10.012;2024-02-15T14:47:41;34.23;;;21.27;;
20857;SDS011;10589;53.636;10.012;2024-02-15T14:50:07;38.03;;;22.03;;
20857;SDS011;10589;53.636;10.012;2024-02-15T14:52:37;33.07;;;20.80;;
20857;SDS011;10589;53.636;10.012;2024-02-15T14:55:06;33.73;;;21.03;;
20857;SDS011;10589;53.636;10.012;2024-02-15T14:57:35;35.07;;;22.53;;
20857;SDS011;10589;53.636;10.012;2024-02-15T15:00:03;37.40;;;20.40;;
20857;SDS011;10589;53.636;10.012;2024-02-15T15:02:35;31.87;;;19.97;;
20857;SDS011;10589;53.636;10.012;2024-02-15T15:05:02;37.30;;;21.70;;
20857;SDS011;10589;53.636;10.012;2024-02-15T15:07:46;36.30;;;22.60;;
20857;SDS011;10589;53.636;10.012;2024-02-15T15:10:30;31.60;;;20.13;;
20857;SDS011;10589;53.636;10.012;2024-02-15T15:13:14;31.30;;;20.57;;
20857;SDS011;10589;53.636;10.012;2024-02-15T15:15:41;31.33;;;20.77;;
20857;SDS011;10589;53.636;10.012;2024-02-15T15:18:06;34.77;;;20.63;;
20857;SDS011;10589;53.636;10.012;2024-02-15T15:20:36;35.77;;;22.63;;
20857;SDS011;10589;53.636;10.012;2024-02-15T15:23:02;34.10;;;22.10;;
20857;SDS011;10589;53.636;10.012;2024-02-15T15:25:29;37.40;;;23.40;;
20857;SDS011;10589;53.636;10.012;2024-02-15T15:27:55;44.07;;;23.87;;
20857;SDS011;10589;53.636;10.012;2024-02-15T15:30:22;34.77;;;21.33;;
20857;SDS011;10589;53.636;10.012;2024-02-15T15:32:48;42.50;;;23.27;;
20857;SDS011;10589;53.636;10.012;2024-02-15T15:35:15;36.47;;;23.00;;
20857;SDS011;10589;53.636;10.012;2024-02-15T15:37:43;37.37;;;23.73;;
20857;SDS011;10589;53.636;10.012;2024-02-15T15:40:11;42.47;;;24.67;;
20857;SDS011;10589;53.636;10.012;2024-02-15T15:42:38;46.20;;;24.20;;
20857;SDS011;10589;53.636;10.012;2024-02-15T15:45:05;39.80;;;23.70;;
20857;SDS011;10589;53.636;10.012;2024-02-15T15:47:33;36.60;;;22.00;;
20857;SDS011;10589;53.636;10.012;2024-02-15T15:49:59;33.73;;;23.60;;
20857;SDS011;10589;53.636;10.012;2024-02-15T15:52:25;41.03;;;23.77;;
20857;SDS011;10589;53.636;10.012;2024-02-15T15:54:51;44.53;;;25.17;;
20857;SDS011;10589;53.636;10.012;2024-02-15T15:57:16;39.27;;;24.33;;
20857;SDS011;10589;53.636;10.012;2024-02-15T15:59:42;39.40;;;24.37;;
20857;SDS011;10589;53.636;10.012;2024-02-15T16:02:08;38.23;;;25.43;;
20857;SDS011;10589;53.636;10.012;2024-02-15T16:04:34;42.10;;;24.40;;
20857;SDS011;10589;53.636;10.012;2024-02-15T16:07:00;37.77;;;24.40;;
20857;SDS011;10589;53.636;10.012;2024-02-15T16:09:25;36.57;;;23.70;;
20857;SDS011;10589;53.636;10.012;2024-02-15T16:11:51;42.07;;;23.90;;
20857;SDS011;10589;53.636;10.012;2024-02-15T16:14:18;41.37;;;24.27;;
20857;SDS011;10589;53.636;10.012;2024-02-15T16:16:44;37.77;;;24.03;;
20857;SDS011;10589;53.636;10.012;2024-02-15T16:19:10;37.97;;;24.87;;
20857;SDS011;10589;53.636;10.012;2024-02-15T16:21:36;41.50;;;24.73;;
20857;SDS011;10589;53.636;10.012;2024-02-15T16:24:03;41.53;;;25.07;;
20857;SDS011;10589;53.636;10.012;2024-02-15T16:26:29;37.63;;;24.83;;
20857;SDS011;10589;53.636;10.012;2024-02-15T16:28:55;39.57;;;24.60;;
20857;SDS011;10589;53.636;10.012;2024-02-15T16:31:20;36.63;;;24.03;;
20857;SDS011;10589;53.636;10.012;2024-02-15T16:33:46;40.90;;;25.23;;
20857;SDS011;10589;53.636;10.012;2024-02-15T16:36:11;38.20;;;24.40;;
20857;SDS011;10589;53.636;10.012;2024-02-15T16:38:37;33.03;;;24.43;;
20857;SDS011;10589;53.636;10.012;2024-02-15T16:41:04;37.63;;;24.43;;
20857;SDS011;10589;53.636;10.012;2024-02-15T16:43:30;39.73;;;24.57;;
20857;SDS011;10589;53.636;10.012;2024-02-15T16:45:56;32.63;;;23.23;;
20857;SDS011;10589;53.636;10.012;2024-02-15T16:48:23;32.20;;;23.17;;
20857;SDS011;10589;53.636;10.012;2024-02-15T16:50:49;33.50;;;23.07;;
20857;SDS011;10589;53.636;10.012;2024-02-15T16:53:14;32.90;;;23.07;;
20857;SDS011;10589;53.636;10.012;2024-02-15T16:55:40;38.67;;;23.17;;
20857;SDS011;10589;53.636;10.012;2024-02-15T16:58:07;36.03;;;24.47;;
20857;SDS011;10589;53.636;10.012;2024-02-15T17:00:33;32.67;;;23.30;;
20857;SDS011;10589;53.636;10.012;2024-02-15T17:02:59;43.13;;;24.50;;
20857;SDS011;10589;53.636;10.012;2024-02-15T17:05:29;40.30;;;24.23;;
20857;SDS011;10589;53.636;10.012;2024-02-15T17:07:54;34.57;;;22.23;;
20857;SDS011;10589;53.636;10.012;2024-02-15T17:10:24;41.70;;;25.17;;
20857;SDS011;10589;53.636;10.012;2024-02-15T17:12:50;34.17;;;23.87;;
20857;SDS011;10589;53.636;10.012;2024-02-15T17:15:20;38.17;;;24.13;;
20857;SDS011;10589;53.636;10.012;2024-02-15T17:17:54;44.23;;;24.73;;
20857;SDS011;10589;53.636;10.012;2024-02-15T17:20:21;37.90;;;26.10;;
20857;SDS011;10589;53.636;10.012;2024-02-15T17:22:48;41.63;;;25.40;;
20857;SDS011;10589;53.636;10.012;2024-02-15T17:25:15;40.40;;;25.37;;
20857;SDS011;10589;53.636;10.012;2024-02-15T17:27:40;52.23;;;28.40;;
20857;SDS011;10589;53.636;10.012;2024-02-15T17:30:10;40.20;;;26.90;;
20857;SDS011;10589;53.636;10.012;2024-02-15T17:32:37;42.33;;;25.97;;
20857;SDS011;10589;53.636;10.012;2024-02-15T17:35:04;36.37;;;25.43;;
20857;SDS011;10589;53.636;10.012;2024-02-15T17:37:31;50.80;;;27.33;;
20857;SDS011;10589;53.636;10.012;2024-02-15T17:39:56;42.47;;;26.27;;
20857;SDS011;10589;53.636;10.012;2024-02-15T17:42:22;45.87;;;28.50;;
20857;SDS011;10589;53.636;10.012;2024-02-15T17:44:48;41.83;;;27.07;;
20857;SDS011;10589;53.636;10.012;2024-02-15T17:47:13;43.13;;;26.97;;
20857;SDS011;10589;53.636;10.012;2024-02-15T17:49:39;39.70;;;26.30;;
20857;SDS011;10589;53.636;10.012;2024-02-15T17:52:05;41.93;;;25.07;;
20857;SDS011;10589;53.636;10.012;2024-02-15T17:54:30;44.50;;;27.50;;
20857;SDS011;10589;53.636;10.012;2024-02-15T17:56:56;46.40;;;27.57;;
20857;SDS011;10589;53.636;10.012;2024-02-15T17:59:22;41.93;;;26.17;;
20857;SDS011;10589;53.636;10.012;2024-02-15T18:01:48;46.50;;;26.93;;
20857;SDS011;10589;53.636;10.012;2024-02-15T18:04:14;46.67;;;27.27;;
20857;SDS011;10589;53.636;10.012;2024-02-15T18:06:39;42.73;;;25.63;;
20857;SDS011;10589;53.636;10.012;2024-02-15T18:09:05;44.10;;;26.80;;
20857;SDS011;10589;53.636;10.012;2024-02-15T18:11:31;45.87;;;26.33;;
20857;SDS011;10589;53.636;10.012;2024-02-15T18:13:57;45.10;;;27.50;;
20857;SDS011;10589;53.636;10.012;2024-02-15T18:16:23;45.67;;;27.03;;
20857;SDS011;10589;53.636;10.012;2024-02-15T18:18:49;45.27;;;28.03;;
20857;SDS011;10589;53.636;10.012;2024-02-15T18:21:16;33.80;;;23.73;;
20857;SDS011;10589;53.636;10.012;2024-02-15T18:23:41;38.33;;;24.80;;
20857;SDS011;10589;53.636;10.012;2024-02-15T18:26:08;35.93;;;25.20;;
20857;SDS011;10589;53.636;10.012;2024-02-15T18:28:34;44.33;;;27.97;;
20857;SDS011;10589;53.636;10.012;2024-02-15T18:31:00;45.33;;;27.07;;
20857;SDS011;10589;53.636;10.012;2024-02-15T18:33:26;49.13;;;29.13;;
20857;SDS011;10589;53.636;10.012;2024-02-15T18:35:53;48.87;;;27.83;;
20857;SDS011;10589;53.636;10.012;2024-02-15T18:38:22;52.47;;;28.30;;
20857;SDS011;10589;53.636;10.012;2024-02-15T18:40:48;38.27;;;25.23;;
20857;SDS011;10589;53.636;10.012;2024-02-15T18:43:14;45.67;;;27.33;;
20857;SDS011;10589;53.636;10.012;2024-02-15T18:45:40;50.33;;;27.27;;
20857;SDS011;10589;53.636;10.012;2024-02-15T18:48:06;50.67;;;28.17;;
20857;SDS011;10589;53.636;10.012;2024-02-15T18:50:35;58.17;;;28.43;;
20857;SDS011;10589;53.636;10.012;2024-02-15T18:53:01;55.67;;;28.67;;
20857;SDS011;10589;53.636;10.012;2024-02-15T18:55:27;42.40;;;25.57;;
20857;SDS011;10589;53.636;10.012;2024-02-15T18:57:54;47.23;;;27.93;;
20857;SDS011;10589;53.636;10.012;2024-02-15T19:00:20;44.13;;;26.87;;
20857;SDS011;10589;53.636;10.012;2024-02-15T19:02:49;51.17;;;26.70;;
20857;SDS011;10589;53.636;10.012;2024-02-15T19:05:16;41.33;;;25.43;;
20857;SDS011;10589;53.636;10.012;2024-02-15T19:07:46;49.27;;;26.00;;